Terminal Aerodrome Forecast
Issued by NWS

Home | Current Version | Previous Version | Text Only | Print | Product List | Glossary On
Versions: 1 2 3 4 5 6 7 8 9 10 11 12 13 14 15
000
FTUS45 KTFX 210541
TAFGTF
TAF
KGTF 210541Z 2106/2206 21015KT P6SM SCT150
     FM211300 21010KT P6SM VCSH BKN070
     FM211600 23008KT P6SM -RASN BKN050
     FM212100 25008KT P6SM BKN080=

USA.gov is the U.S. government's official web portal to all federal, state and local government web resources and services.